Time;durP1;ratioP1;P1;durP2;ratioP2;P2;SDS_P1;SDS_P2;PMS_P1;PMS_P2;Temp;Humidity;BMP_temperature;BMP_pressure;BME280_temperature;BME280_humidity;BME280_pressure;Samples;Min_cycle;Max_cycle;Signal;HPM_P1;HPM_P2
2022/11/13 00:01:20;;;;;;;14.60;11.30;;;5.30;99.90;;;;;;5027697;28;20468;-77
2022/11/13 00:03:46;;;;;;;9.63;8.38;;;5.10;99.90;;;;;;5024245;28;20476;-75
2022/11/13 00:06:13;;;;;;;11.55;9.30;;;4.80;99.90;;;;;;5009764;28;20113;-78
2022/11/13 00:08:40;;;;;;;10.23;9.13;;;4.90;99.90;;;;;;5009163;28;20045;-78
2022/11/13 00:11:13;;;;;;;12.20;9.95;;;4.70;99.90;;;;;;5028607;28;20463;-75
2022/11/13 00:13:39;;;;;;;11.30;10.02;;;4.70;99.90;;;;;;5023246;28;20392;-79
2022/11/13 00:16:08;;;;;;;11.48;9.77;;;5.10;99.90;;;;;;5026103;28;20042;-77
2022/11/13 00:18:34;;;;;;;11.70;8.60;;;5.10;99.90;;;;;;5025379;28;20045;-77
2022/11/13 00:21:12;;;;;;;11.40;9.48;;;5.10;99.90;;;;;;5026304;28;20034;-78
2022/11/13 00:23:38;;;;;;;27.10;9.20;;;5.00;99.90;;;;;;5026180;28;20053;-76
2022/11/13 00:26:09;;;;;;;10.35;9.10;;;4.90;99.90;;;;;;5026516;28;20037;-77
2022/11/13 00:28:34;;;;;;;9.63;8.63;;;4.70;99.90;;;;;;5028110;28;20053;-78
2022/11/13 00:31:01;;;;;;;11.20;9.45;;;4.80;99.90;;;;;;5027573;28;20037;-76
2022/11/13 00:33:27;;;;;;;14.77;10.27;;;5.00;99.90;;;;;;5022056;28;21574;-78
2022/11/13 00:35:53;;;;;;;12.70;9.48;;;4.80;99.90;;;;;;5018093;28;20041;-79
2022/11/13 00:38:19;;;;;;;14.20;11.55;;;4.80;99.90;;;;;;5026551;28;20164;-76
2022/11/13 00:40:44;;;;;;;15.02;11.77;;;5.20;99.90;;;;;;5026318;28;20511;-78
2022/11/13 00:43:10;;;;;;;15.00;12.55;;;5.00;99.90;;;;;;5026882;28;20072;-77
2022/11/13 00:45:36;;;;;;;16.63;13.60;;;5.10;99.90;;;;;;5026074;28;20056;-78
2022/11/13 00:48:01;;;;;;;19.58;12.85;;;5.10;99.90;;;;;;5027134;28;20053;-79
2022/11/13 00:50:27;;;;;;;18.65;15.20;;;5.40;99.90;;;;;;5026598;28;20139;-77
2022/11/13 00:52:52;;;;;;;18.73;14.75;;;5.50;99.90;;;;;;5027082;28;20049;-76
2022/11/13 00:55:18;;;;;;;18.80;14.73;;;5.30;99.90;;;;;;5025604;28;20033;-78
2022/11/13 00:57:44;;;;;;;17.63;14.90;;;5.70;99.90;;;;;;5021589;28;20044;-76
2022/11/13 01:00:10;;;;;;;20.13;16.15;;;5.60;99.90;;;;;;5026113;28;20124;-77
2022/11/13 01:02:36;;;;;;;20.95;16.65;;;5.80;99.90;;;;;;5025905;28;20040;-77
2022/11/13 01:05:01;;;;;;;19.05;16.27;;;5.90;99.90;;;;;;5025831;28;20042;-78
2022/11/13 01:07:27;;;;;;;29.20;17.98;;;5.80;99.90;;;;;;5023824;28;20503;-75
2022/11/13 01:09:53;;;;;;;20.30;14.80;;;5.90;99.90;;;;;;5027376;28;20373;-78
2022/11/13 01:12:18;;;;;;;23.50;17.00;;;5.60;99.90;;;;;;5026154;28;20424;-77
2022/11/13 01:14:44;;;;;;;19.05;15.25;;;6.00;99.90;;;;;;5007845;28;20045;-77
2022/11/13 01:17:10;;;;;;;20.15;16.25;;;6.00;99.90;;;;;;5024695;28;20164;-77
2022/11/13 01:19:35;;;;;;;20.67;17.40;;;5.60;99.90;;;;;;5023917;28;20037;-76
2022/11/13 01:22:01;;;;;;;23.58;19.95;;;5.90;99.90;;;;;;5024789;28;20438;-76
2022/11/13 01:24:26;;;;;;;46.17;40.47;;;6.10;99.90;;;;;;5023085;28;20059;-75
2022/11/13 01:26:52;;;;;;;42.55;37.42;;;5.70;99.90;;;;;;5022912;28;20048;-77
2022/11/13 01:29:18;;;;;;;26.08;21.17;;;5.80;99.90;;;;;;5023633;28;20411;-76
2022/11/13 01:31:43;;;;;;;26.27;17.42;;;5.90;99.90;;;;;;5023444;28;20041;-75
2022/11/13 01:34:09;;;;;;;21.65;17.65;;;5.80;99.90;;;;;;5026248;28;20038;-77
2022/11/13 01:36:34;;;;;;;19.58;15.88;;;6.20;99.90;;;;;;5026100;28;20053;-78
2022/11/13 01:39:00;;;;;;;29.10;18.33;;;6.30;99.90;;;;;;5023781;28;20088;-76
2022/11/13 01:41:32;;;;;;;23.70;16.90;;;6.30;99.90;;;;;;5026538;28;20088;-79
2022/11/13 01:43:58;;;;;;;23.45;17.73;;;6.20;99.90;;;;;;5024888;28;20514;-77
2022/11/13 01:46:29;;;;;;;23.67;15.75;;;6.20;99.90;;;;;;5026089;28;20040;-78
2022/11/13 01:49:01;;;;;;;19.15;16.40;;;6.30;99.90;;;;;;5016324;28;20050;-78
2022/11/13 01:51:43;;;;;;;21.15;15.07;;;5.90;99.90;;;;;;5024071;28;20045;-78
2022/11/13 01:54:34;;;;;;;23.15;16.27;;;6.10;99.90;;;;;;5024136;28;20067;-77
2022/11/13 01:57:02;;;;;;;19.30;16.45;;;6.00;99.90;;;;;;5011732;28;20057;-77
2022/11/13 01:59:40;;;;;;;24.15;17.02;;;6.00;99.90;;;;;;5015697;28;20306;-75
2022/11/13 02:02:06;;;;;;;18.63;15.57;;;6.50;99.90;;;;;;5023414;28;20037;-76
2022/11/13 02:04:32;;;;;;;25.25;17.13;;;6.40;99.90;;;;;;5017142;28;20048;-77
2022/11/13 02:06:59;;;;;;;20.40;14.88;;;6.50;99.90;;;;;;5103415;23;20496;-79
2022/11/13 02:09:32;;;;;;;23.30;16.83;;;6.10;99.90;;;;;;5045622;28;20391;-75
2022/11/13 02:11:58;;;;;;;24.13;16.02;;;6.50;99.90;;;;;;5046932;28;20053;-75
2022/11/13 02:14:26;;;;;;;17.88;16.00;;;6.10;99.90;;;;;;5046933;28;20045;-78
2022/11/13 02:16:57;;;;;;;22.02;16.77;;;6.10;99.90;;;;;;5045566;28;20132;-78
2022/11/13 02:19:39;;;;;;;19.23;15.98;;;6.00;99.90;;;;;;5030084;28;20045;-78
2022/11/13 02:22:23;;;;;;;21.80;15.02;;;6.50;99.90;;;;;;5045529;28;20097;-78
2022/11/13 02:24:49;;;;;;;21.38;16.13;;;6.50;99.90;;;;;;5047266;28;20049;-77
2022/11/13 02:27:41;;;;;;;22.23;17.17;;;6.30;99.90;;;;;;5042326;28;20040;-77
2022/11/13 02:30:25;;;;;;;20.92;16.98;;;6.10;99.90;;;;;;5045257;28;20052;-78
2022/11/13 02:32:52;;;;;;;22.17;15.93;;;6.30;99.90;;;;;;5045786;28;20120;-77
2022/11/13 02:35:23;;;;;;;25.27;18.70;;;6.40;99.90;;;;;;5044494;28;20049;-77
2022/11/13 02:37:48;;;;;;;22.20;16.52;;;6.10;99.90;;;;;;5045195;28;20052;-77
2022/11/13 02:40:14;;;;;;;20.42;17.67;;;6.20;99.90;;;;;;5047323;28;20041;-75
2022/11/13 02:42:40;;;;;;;23.85;17.38;;;6.30;99.90;;;;;;5050057;28;20106;-76
2022/11/13 02:45:06;;;;;;;21.35;16.50;;;6.40;99.90;;;;;;5050567;28;20048;-74
2022/11/13 02:47:32;;;;;;;22.55;16.73;;;6.10;99.90;;;;;;5050915;28;20044;-78
2022/11/13 02:49:58;;;;;;;28.30;18.75;;;6.40;99.90;;;;;;5051324;28;20372;-77
2022/11/13 02:52:24;;;;;;;25.13;18.98;;;6.50;99.90;;;;;;5048092;28;20052;-76
2022/11/13 02:54:49;;;;;;;24.13;19.17;;;6.10;99.90;;;;;;5048989;28;20123;-77
2022/11/13 02:57:15;;;;;;;24.88;17.98;;;6.00;99.90;;;;;;5050166;28;20049;-78
2022/11/13 02:59:41;;;;;;;20.35;15.85;;;6.30;99.90;;;;;;5048268;28;20076;-78
2022/11/13 03:02:06;;;;;;;23.73;18.08;;;6.20;99.90;;;;;;5044825;28;20052;-77
2022/11/13 03:04:32;;;;;;;21.65;16.80;;;6.00;99.90;;;;;;5049500;28;20399;-76
2022/11/13 03:06:57;;;;;;;23.27;17.08;;;6.20;99.90;;;;;;5049044;28;20056;-77
2022/11/13 03:09:23;;;;;;;22.25;18.83;;;6.10;99.90;;;;;;5045362;28;20037;-78
2022/11/13 03:11:49;;;;;;;24.50;18.20;;;6.40;99.90;;;;;;5035921;28;20041;-78
2022/11/13 03:14:15;;;;;;;22.05;17.98;;;6.10;99.90;;;;;;5034918;28;20045;-75
2022/11/13 03:16:40;;;;;;;26.33;20.27;;;6.20;99.90;;;;;;5048646;28;20376;-78
2022/11/13 03:19:06;;;;;;;20.95;17.85;;;6.00;99.90;;;;;;5051043;28;20045;-77
2022/11/13 03:21:32;;;;;;;25.65;19.10;;;6.40;99.90;;;;;;5049462;28;20045;-77
2022/11/13 03:23:57;;;;;;;23.52;19.33;;;6.40;99.90;;;;;;5047947;28;20065;-77
2022/11/13 03:26:23;;;;;;;25.75;20.83;;;6.40;99.90;;;;;;5048286;28;20049;-78
2022/11/13 03:28:49;;;;;;;30.40;19.67;;;6.50;99.90;;;;;;5049883;28;20507;-78
2022/11/13 03:31:15;;;;;;;24.05;17.88;;;6.20;99.90;;;;;;5049550;28;20041;-78
2022/11/13 03:33:41;;;;;;;45.15;21.23;;;6.10;99.90;;;;;;5042635;28;20076;-77
2022/11/13 03:36:07;;;;;;;28.63;19.20;;;6.50;99.90;;;;;;5050271;28;20635;-78
2022/11/13 03:38:33;;;;;;;29.88;21.00;;;6.50;99.90;;;;;;5049898;28;20045;-75
2022/11/13 03:40:59;;;;;;;26.40;20.73;;;6.20;99.90;;;;;;5050194;28;20055;-78
2022/11/13 03:43:25;;;;;;;24.33;19.50;;;6.60;99.90;;;;;;5047926;28;20041;-78
2022/11/13 03:45:51;;;;;;;22.95;18.98;;;6.20;99.90;;;;;;5047970;28;20124;-78
2022/11/13 03:48:17;;;;;;;27.13;20.35;;;6.40;99.90;;;;;;5049110;28;20096;-77
2022/11/13 03:50:46;;;;;;;25.55;20.20;;;6.60;99.90;;;;;;5044251;28;20560;-76
2022/11/13 03:53:12;;;;;;;25.35;20.30;;;6.40;99.90;;;;;;5027237;28;20448;-77
2022/11/13 03:55:38;;;;;;;24.30;19.83;;;6.50;99.90;;;;;;5031563;28;20188;-78
2022/11/13 03:58:04;;;;;;;24.42;20.20;;;6.30;99.90;;;;;;5048679;28;20041;-77
2022/11/13 04:00:30;;;;;;;25.13;19.88;;;6.50;99.90;;;;;;5049321;28;20055;-79
2022/11/13 04:02:56;;;;;;;26.67;20.55;;;6.20;99.90;;;;;;5040998;28;20041;-76
2022/11/13 04:05:22;;;;;;;24.75;20.95;;;6.30;99.90;;;;;;5036715;28;20380;-77
2022/11/13 04:07:47;;;;;;;23.00;20.42;;;6.60;99.90;;;;;;5048674;28;20383;-78
2022/11/13 04:10:14;;;;;;;26.40;19.42;;;6.20;99.90;;;;;;5049586;28;20094;-78
2022/11/13 04:12:39;;;;;;;25.92;18.90;;;6.60;99.90;;;;;;5031120;28;20055;-78
2022/11/13 04:15:06;;;;;;;24.05;18.48;;;6.50;99.90;;;;;;5047430;28;20490;-77
2022/11/13 04:17:31;;;;;;;24.63;21.25;;;6.20;99.90;;;;;;5047986;28;20559;-78
2022/11/13 04:19:57;;;;;;;25.38;19.88;;;6.20;99.90;;;;;;5047442;28;20136;-75
2022/11/13 04:22:23;;;;;;;26.67;22.48;;;6.30;99.90;;;;;;5032580;28;20064;-75
2022/11/13 04:24:49;;;;;;;24.45;19.83;;;6.60;99.90;;;;;;5051385;28;20045;-78
2022/11/13 04:27:14;;;;;;;28.98;21.13;;;6.50;99.90;;;;;;5053417;28;20138;-75
2022/11/13 04:29:40;;;;;;;29.38;18.67;;;6.30;99.90;;;;;;5031784;28;20415;-77
2022/11/13 04:32:05;;;;;;;30.15;20.35;;;6.60;99.90;;;;;;5049838;28;20487;-76
2022/11/13 04:34:31;;;;;;;27.48;19.08;;;6.20;99.90;;;;;;5046392;28;20049;-78
2022/11/13 04:36:57;;;;;;;27.17;20.00;;;6.60;99.90;;;;;;5047031;28;20487;-78
2022/11/13 04:39:22;;;;;;;19.90;17.75;;;6.30;99.90;;;;;;5049483;28;20037;-78
2022/11/13 04:44:32;;;;;;;29.45;20.10;;;6.50;99.90;;;;;;5045313;28;20612;-78
2022/11/13 04:46:58;;;;;;;23.25;19.45;;;6.60;99.90;;;;;;5045730;28;20045;-75
2022/11/13 04:49:23;;;;;;;21.58;19.02;;;6.30;99.90;;;;;;5034137;28;20048;-77
2022/11/13 04:51:49;;;;;;;26.60;20.48;;;6.40;99.90;;;;;;5043843;28;20410;-78
2022/11/13 04:54:14;;;;;;;24.10;19.75;;;6.50;99.90;;;;;;5048973;28;20047;-75
2022/11/13 04:56:40;;;;;;;22.48;18.55;;;6.60;99.90;;;;;;5046933;28;20053;-78
2022/11/13 04:59:06;;;;;;;24.73;19.48;;;6.20;99.90;;;;;;5038563;28;20132;-76
2022/11/13 05:01:34;;;;;;;28.10;19.88;;;6.50;99.90;;;;;;5041075;28;20186;-76
2022/11/13 05:03:59;;;;;;;20.73;18.48;;;6.60;99.90;;;;;;5045769;28;20391;-77
2022/11/13 05:06:25;;;;;;;23.45;19.85;;;6.40;99.90;;;;;;5043455;28;20065;-75
2022/11/13 05:08:51;;;;;;;27.35;17.77;;;6.20;99.90;;;;;;5029006;28;20053;-76
2022/11/13 05:11:16;;;;;;;25.50;20.85;;;6.30;99.90;;;;;;5029277;28;20094;-76
2022/11/13 05:13:42;;;;;;;26.88;20.55;;;6.50;99.90;;;;;;5038967;28;20033;-76
2022/11/13 05:16:09;;;;;;;22.85;17.85;;;6.10;99.90;;;;;;5046347;28;20415;-76
2022/11/13 05:18:37;;;;;;;24.23;18.20;;;6.20;99.90;;;;;;5045959;28;20041;-77
2022/11/13 05:21:04;;;;;;;25.40;19.17;;;6.10;99.90;;;;;;5047114;28;20126;-77
2022/11/13 05:23:30;;;;;;;22.13;19.35;;;6.40;99.90;;;;;;5045484;28;20128;-77
2022/11/13 05:26:10;;;;;;;31.10;20.73;;;6.10;99.90;;;;;;5046588;28;20186;-77
2022/11/13 05:28:36;;;;;;;;;;;6.40;99.90;;;;;;5048668;28;20601;-77
2022/11/13 05:31:03;;;;;;;28.05;19.17;;;6.30;99.90;;;;;;5036339;28;20371;-79
2022/11/13 05:33:29;;;;;;;23.65;18.80;;;6.30;99.90;;;;;;5042931;28;20049;-75
2022/11/13 05:35:59;;;;;;;23.10;19.75;;;6.10;99.90;;;;;;5046349;28;20510;-77
2022/11/13 05:38:24;;;;;;;23.05;17.70;;;6.00;99.90;;;;;;5046618;28;20040;-77
2022/11/13 05:40:50;;;;;;;25.42;19.40;;;5.90;99.90;;;;;;5045481;28;20122;-76
2022/11/13 05:43:16;;;;;;;25.70;19.75;;;5.90;99.90;;;;;;5046724;28;20059;-76
2022/11/13 05:45:41;;;;;;;22.35;17.50;;;6.30;99.90;;;;;;5045743;28;20385;-77
2022/11/13 05:48:07;;;;;;;23.35;19.05;;;6.30;99.90;;;;;;5046557;28;20037;-78
2022/11/13 05:50:32;;;;;;;22.67;16.58;;;6.30;99.90;;;;;;5048265;28;20648;-75
2022/11/13 05:52:58;;;;;;;22.25;18.20;;;6.10;99.90;;;;;;5039924;28;20040;-77
2022/11/13 05:55:24;;;;;;;24.80;18.65;;;6.30;99.90;;;;;;5029027;28;20047;-76
2022/11/13 05:57:49;;;;;;;26.05;19.50;;;5.90;99.90;;;;;;5046203;28;20083;-77
2022/11/13 06:00:15;;;;;;;20.38;17.30;;;5.90;99.90;;;;;;5046494;28;20406;-77
2022/11/13 06:02:41;;;;;;;48.65;17.50;;;6.10;99.90;;;;;;5044206;28;20029;-76
2022/11/13 06:05:07;;;;;;;26.52;16.73;;;6.20;99.90;;;;;;5045257;28;20125;-77
2022/11/13 06:07:33;;;;;;;21.52;16.83;;;5.90;99.90;;;;;;5038484;28;20041;-78
2022/11/13 06:09:58;;;;;;;21.25;15.80;;;5.90;99.90;;;;;;5029399;28;20042;-77
2022/11/13 06:12:24;;;;;;;21.75;16.85;;;5.80;99.90;;;;;;5046968;28;20083;-77
2022/11/13 06:14:49;;;;;;;22.83;19.33;;;6.00;99.90;;;;;;5048046;28;20041;-78
2022/11/13 06:17:15;;;;;;;22.65;17.77;;;5.80;99.90;;;;;;5051311;28;20087;-77
2022/11/13 06:19:40;;;;;;;23.27;16.45;;;5.90;99.90;;;;;;5050128;28;20041;-77
2022/11/13 06:22:06;;;;;;;20.83;17.20;;;6.00;99.90;;;;;;5049604;28;20045;-78
2022/11/13 06:24:32;;;;;;;22.40;17.75;;;6.00;99.90;;;;;;5051176;28;20814;-77
2022/11/13 06:26:57;;;;;;;23.63;17.25;;;6.00;99.90;;;;;;5049516;28;20130;-76
2022/11/13 06:29:23;;;;;;;19.58;16.48;;;5.70;99.90;;;;;;5050091;28;20056;-75
2022/11/13 06:31:48;;;;;;;23.33;17.10;;;5.70;99.90;;;;;;5049489;28;20045;-77
2022/11/13 06:34:14;;;;;;;22.67;17.17;;;5.70;99.90;;;;;;5051653;28;20045;-78
2022/11/13 06:36:40;;;;;;;20.77;16.50;;;6.00;99.90;;;;;;5049537;28;20083;-78
2022/11/13 06:39:07;;;;;;;23.50;17.92;;;5.70;99.90;;;;;;5018944;28;20053;-74
2022/11/13 06:41:32;;;;;;;23.50;16.45;;;5.70;99.90;;;;;;5047918;28;20033;-77
2022/11/13 06:43:59;;;;;;;20.40;16.50;;;5.60;99.90;;;;;;5049730;28;20106;-76
2022/11/13 06:46:27;;;;;;;21.95;16.20;;;5.90;99.90;;;;;;5049034;28;20072;-75
2022/11/13 06:48:53;;;;;;;21.40;17.02;;;5.90;99.90;;;;;;5049654;28;20052;-76
2022/11/13 06:51:21;;;;;;;20.27;16.08;;;5.60;99.90;;;;;;5050561;28;20116;-75
2022/11/13 06:53:47;;;;;;;21.27;15.68;;;5.50;99.90;;;;;;5038750;28;20049;-76
2022/11/13 06:56:13;;;;;;;22.00;16.77;;;5.70;99.90;;;;;;5034423;28;20104;-76
2022/11/13 06:58:39;;;;;;;22.80;16.20;;;5.50;99.90;;;;;;5048864;28;20041;-75
2022/11/13 07:01:17;;;;;;;23.30;18.10;;;5.60;99.90;;;;;;5030628;28;20088;-73
2022/11/13 07:03:43;;;;;;;21.58;17.35;;;5.40;99.90;;;;;;5031115;28;20091;-76
2022/11/13 07:06:14;;;;;;;20.42;16.77;;;5.60;99.90;;;;;;5042228;28;20050;-74
2022/11/13 07:08:43;;;;;;;21.77;15.95;;;5.20;99.90;;;;;;5048828;28;20048;-76
2022/11/13 07:11:12;;;;;;;22.15;15.85;;;5.30;99.90;;;;;;5044458;28;20045;-75
2022/11/13 07:13:37;;;;;;;19.52;16.60;;;5.40;99.90;;;;;;5039105;28;20052;-75
2022/11/13 07:16:05;;;;;;;21.23;17.33;;;5.50;99.90;;;;;;5045890;28;20044;-77
2022/11/13 07:18:33;;;;;;;24.30;18.30;;;5.40;99.90;;;;;;5037253;28;20052;-76
2022/11/13 07:21:05;;;;;;;22.25;17.50;;;5.40;99.90;;;;;;5023371;28;20049;-75
2022/11/13 07:23:33;;;;;;;23.63;18.75;;;5.40;99.90;;;;;;5030590;28;20392;-77
2022/11/13 07:26:00;;;;;;;22.35;17.25;;;5.20;99.90;;;;;;5039314;28;20060;-75
2022/11/13 07:28:31;;;;;;;28.85;18.33;;;5.20;99.90;;;;;;5039582;28;20032;-77
2022/11/13 07:31:00;;;;;;;25.52;18.23;;;5.60;99.90;;;;;;5049913;28;20037;-77
2022/11/13 07:33:26;;;;;;;29.17;21.27;;;5.70;99.90;;;;;;5042666;28;20065;-75
2022/11/13 07:35:54;;;;;;;28.73;21.35;;;5.60;99.90;;;;;;5046829;28;20044;-76
2022/11/13 07:38:19;;;;;;;24.30;18.45;;;5.30;99.90;;;;;;5050335;28;20158;-76
2022/11/13 07:40:45;;;;;;;20.73;16.95;;;5.30;99.90;;;;;;5050039;28;20483;-75
2022/11/13 07:43:11;;;;;;;21.80;16.27;;;5.40;99.90;;;;;;5048100;28;20127;-76
2022/11/13 07:45:36;;;;;;;22.10;16.98;;;5.70;99.90;;;;;;5049146;28;20483;-75
2022/11/13 07:48:03;;;;;;;22.98;18.10;;;5.60;99.90;;;;;;5048921;28;20079;-76
2022/11/13 07:50:32;;;;;;;28.50;18.58;;;5.70;99.90;;;;;;5048789;28;20048;-76
2022/11/13 07:52:59;;;;;;;29.65;19.10;;;5.60;99.90;;;;;;5048276;28;20072;-76
2022/11/13 07:55:25;;;;;;;23.92;17.63;;;5.90;99.90;;;;;;5045991;28;20134;-73
2022/11/13 07:57:57;;;;;;;20.95;18.15;;;5.90;99.90;;;;;;5043381;28;20411;-78
2022/11/13 08:00:24;;;;;;;23.20;17.73;;;5.90;99.90;;;;;;5033466;28;20052;-75
2022/11/13 08:02:51;;;;;;;24.70;18.20;;;6.10;99.90;;;;;;5041789;28;20049;-76
2022/11/13 08:05:17;;;;;;;23.27;18.48;;;6.30;99.90;;;;;;5044175;28;20041;-77
2022/11/13 08:07:46;;;;;;;22.15;16.45;;;6.40;99.90;;;;;;5027292;28;20064;-77
2022/11/13 08:10:11;;;;;;;22.00;17.65;;;6.30;99.90;;;;;;5049484;28;20037;-77
2022/11/13 08:12:37;;;;;;;19.20;16.08;;;6.30;99.90;;;;;;5049685;28;20048;-77
2022/11/13 08:15:03;;;;;;;21.27;15.88;;;6.50;99.90;;;;;;5049682;28;20414;-76
2022/11/13 08:17:29;;;;;;;22.00;17.52;;;6.60;99.90;;;;;;5034202;28;20090;-77
2022/11/13 08:19:54;;;;;;;18.55;16.60;;;6.50;99.90;;;;;;5041678;28;20425;-78
2022/11/13 08:22:29;;;;;;;18.73;14.40;;;6.60;99.90;;;;;;5042457;28;20049;-77
2022/11/13 08:24:55;;;;;;;22.73;16.02;;;6.80;99.90;;;;;;5047959;28;20053;-75
2022/11/13 08:27:21;;;;;;;21.50;16.95;;;6.90;99.90;;;;;;5046824;28;20056;-76
2022/11/13 08:29:48;;;;;;;23.05;16.77;;;7.00;99.90;;;;;;5028399;28;20060;-76
2022/11/13 08:32:15;;;;;;;18.35;14.75;;;7.10;99.90;;;;;;5049489;28;20077;-76
2022/11/13 08:34:40;;;;;;;19.27;15.40;;;7.10;99.90;;;;;;5047241;28;20127;-76
2022/11/13 08:37:06;;;;;;;19.50;15.40;;;7.30;99.90;;;;;;5028732;28;20128;-76
2022/11/13 08:39:34;;;;;;;18.40;15.10;;;7.20;99.90;;;;;;5031254;28;20077;-76
2022/11/13 08:42:03;;;;;;;21.50;13.35;;;7.40;99.90;;;;;;5048965;28;20407;-76
2022/11/13 08:44:29;;;;;;;18.08;14.95;;;7.60;99.90;;;;;;5048119;28;20455;-76
2022/11/13 08:46:55;;;;;;;24.23;14.45;;;7.70;99.90;;;;;;5047298;28;20552;-76
2022/11/13 08:49:20;;;;;;;22.10;14.20;;;7.70;99.90;;;;;;5029630;28;20042;-73
2022/11/13 08:51:46;;;;;;;19.92;14.00;;;7.80;99.90;;;;;;5040700;28;20367;-76
2022/11/13 08:54:12;;;;;;;19.65;13.15;;;7.80;99.90;;;;;;5046457;28;20082;-77
2022/11/13 08:56:37;;;;;;;17.30;15.23;;;8.00;99.90;;;;;;5031444;28;20044;-74
2022/11/13 08:59:03;;;;;;;16.90;13.27;;;8.10;99.90;;;;;;5052200;28;20068;-77
2022/11/13 09:01:28;;;;;;;20.67;14.40;;;8.00;99.90;;;;;;5038373;28;20522;-77
2022/11/13 09:03:58;;;;;;;16.15;12.95;;;8.00;99.90;;;;;;5039754;28;20045;-76
2022/11/13 09:06:24;;;;;;;16.35;11.90;;;8.10;99.90;;;;;;5027975;28;20069;-79
2022/11/13 09:08:49;;;;;;;15.75;11.57;;;8.20;99.90;;;;;;5029693;28;20048;-76
2022/11/13 09:11:15;;;;;;;16.63;12.45;;;8.30;99.90;;;;;;5039062;28;20037;-79
2022/11/13 09:13:41;;;;;;;16.40;12.50;;;8.30;99.90;;;;;;5048067;28;20056;-79
2022/11/13 09:16:08;;;;;;;13.35;10.80;;;8.30;99.90;;;;;;5032650;28;20557;-76
2022/11/13 09:18:34;;;;;;;15.13;11.90;;;8.50;99.90;;;;;;5036690;28;20040;-78
2022/11/13 09:21:01;;;;;;;13.25;11.82;;;8.70;99.90;;;;;;5047007;28;20072;-75
2022/11/13 09:23:28;;;;;;;13.45;11.90;;;8.60;99.90;;;;;;5048785;28;20052;-79
2022/11/13 09:25:53;;;;;;;14.80;11.15;;;8.80;99.90;;;;;;5040476;28;20045;-81
2022/11/13 09:28:19;;;;;;;17.20;11.43;;;8.90;99.90;;;;;;5046901;28;20408;-75
2022/11/13 09:30:45;;;;;;;14.93;11.20;;;9.00;99.90;;;;;;5046526;28;20036;-77
2022/11/13 09:33:14;;;;;;;16.48;11.25;;;8.90;99.90;;;;;;5033430;28;20438;-75
2022/11/13 09:35:42;;;;;;;12.48;10.90;;;9.10;99.90;;;;;;5038646;28;20041;-75
2022/11/13 09:38:12;;;;;;;19.88;12.45;;;9.20;99.90;;;;;;5023624;28;20151;-77
2022/11/13 09:41:04;;;;;;;13.05;10.40;;;9.20;99.90;;;;;;5017579;28;20041;-76
2022/11/13 09:43:37;;;;;;;11.60;9.60;;;9.40;99.90;;;;;;5035874;28;20056;-75
2022/11/13 09:46:20;;;;;;;12.32;11.05;;;9.50;99.90;;;;;;5028367;28;20049;-75
2022/11/13 09:48:59;;;;;;;13.52;9.55;;;9.50;99.90;;;;;;5027334;28;20545;-72
2022/11/13 09:51:28;;;;;;;13.75;9.77;;;9.60;99.90;;;;;;5035313;28;20915;-75
2022/11/13 09:53:54;;;;;;;14.90;11.50;;;9.80;99.90;;;;;;5030202;28;20055;-76
2022/11/13 09:56:32;;;;;;;11.80;10.55;;;9.90;99.90;;;;;;5047452;28;20049;-76
2022/11/13 09:59:24;;;;;;;12.85;8.52;;;10.00;99.90;;;;;;5046684;28;20041;-75
2022/11/13 10:02:22;;;;;;;12.43;9.43;;;10.00;99.90;;;;;;5035141;28;20045;-76
2022/11/13 10:05:08;;;;;;;10.80;7.72;;;10.10;99.90;;;;;;5027717;28;20604;-75
2022/11/13 10:07:50;;;;;;;10.80;8.40;;;10.20;99.90;;;;;;5033038;28;20056;-76
2022/11/13 10:10:31;;;;;;;9.95;8.20;;;10.30;99.90;;;;;;5046656;28;20052;-78
2022/11/13 10:12:58;;;;;;;10.48;8.40;;;10.40;99.90;;;;;;5043380;28;20052;-76
2022/11/13 10:15:25;;;;;;;17.17;10.13;;;10.50;99.90;;;;;;5035553;28;20524;-76
2022/11/13 10:18:19;;;;;;;10.48;8.40;;;10.60;99.90;;;;;;5035614;28;20056;-76
2022/11/13 10:20:56;;;;;;;11.55;7.82;;;10.70;99.90;;;;;;5043951;28;20476;-76
2022/11/13 10:23:30;;;;;;;11.63;8.77;;;10.80;99.90;;;;;;5029843;28;20053;-77
2022/11/13 10:26:06;;;;;;;14.20;8.30;;;10.80;99.90;;;;;;5036654;28;20381;-78
2022/11/13 10:28:32;;;;;;;10.82;7.57;;;10.80;99.90;;;;;;5017437;28;20375;-75
2022/11/13 10:30:58;;;;;;;11.00;8.07;;;10.80;99.90;;;;;;5016215;28;20067;-76
2022/11/13 10:33:24;;;;;;;9.00;7.90;;;10.90;99.90;;;;;;5043968;28;20049;-75
2022/11/13 10:36:18;;;;;;;11.35;9.15;;;10.90;99.90;;;;;;5045817;28;20045;-77
2022/11/13 10:38:53;;;;;;;9.88;7.18;;;11.00;99.90;;;;;;5044927;28;20049;-76
2022/11/13 10:41:20;;;;;;;10.43;7.10;;;11.10;99.90;;;;;;5043618;28;20045;-75
2022/11/13 10:44:01;;;;;;;8.90;8.00;;;11.40;99.90;;;;;;5045634;28;20731;-75
2022/11/13 10:46:29;;;;;;;9.07;7.95;;;11.40;99.90;;;;;;5044070;28;20081;-75
2022/11/13 10:48:56;;;;;;;10.00;7.80;;;11.40;99.90;;;;;;5026115;28;20048;-75
2022/11/13 10:51:30;;;;;;;10.55;6.57;;;11.60;99.90;;;;;;5026807;28;20072;-74
2022/11/13 10:53:57;;;;;;;9.63;8.45;;;11.60;99.90;;;;;;5045334;28;20056;-75
2022/11/13 10:56:34;;;;;;;7.38;6.32;;;11.70;99.90;;;;;;5036627;28;20049;-77
2022/11/13 10:59:15;;;;;;;21.90;7.70;;;11.70;99.90;;;;;;5041333;28;20064;-76
2022/11/13 11:01:43;;;;;;;9.82;8.13;;;11.80;99.90;;;;;;5046784;28;20051;-76
2022/11/13 11:04:20;;;;;;;9.43;7.40;;;11.90;99.90;;;;;;5033054;28;20053;-75
2022/11/13 11:06:47;;;;;;;9.27;6.88;;;11.90;99.90;;;;;;5037541;28;20049;-79
2022/11/13 11:09:19;;;;;;;9.82;7.20;;;11.90;99.90;;;;;;5037428;28;20108;-77
2022/11/13 11:12:15;;;;;;;11.57;7.30;;;11.90;99.90;;;;;;5047467;28;20053;-75
2022/11/13 11:14:56;;;;;;;10.45;7.28;;;12.00;99.90;;;;;;5050211;28;20095;-76
2022/11/13 11:17:33;;;;;;;8.88;6.28;;;12.00;99.90;;;;;;5032936;28;20049;-76
2022/11/13 11:20:06;;;;;;;8.35;6.95;;;12.00;99.90;;;;;;5049280;28;20033;-74
2022/11/13 11:22:35;;;;;;;8.45;6.97;;;11.90;99.90;;;;;;5031752;28;20055;-77
2022/11/13 11:25:19;;;;;;;7.95;6.20;;;11.80;99.90;;;;;;5024572;28;20041;-77
2022/11/13 11:27:51;;;;;;;9.10;6.57;;;11.80;99.90;;;;;;5045468;28;20044;-77
2022/11/13 11:30:22;;;;;;;13.40;8.75;;;11.70;99.90;;;;;;5046500;28;20384;-76
2022/11/13 11:33:22;;;;;;;12.05;8.13;;;11.70;99.90;;;;;;5043583;28;20049;-76
2022/11/13 11:36:10;;;;;;;13.60;8.10;;;11.60;99.90;;;;;;5047595;28;20052;-78
2022/11/13 11:39:05;;;;;;;10.13;8.25;;;11.60;99.90;;;;;;5037337;28;20049;-77
2022/11/13 11:41:48;;;;;;;14.00;10.93;;;11.60;99.90;;;;;;5040498;28;20136;-77
2022/11/13 11:44:22;;;;;;;13.02;9.55;;;11.60;99.90;;;;;;5034735;28;20068;-76
2022/11/13 11:46:49;;;;;;;14.43;9.90;;;11.70;99.90;;;;;;5038063;28;20067;-75
2022/11/13 11:49:15;;;;;;;13.52;10.63;;;11.90;99.90;;;;;;5038961;28;20091;-76
2022/11/13 11:51:55;;;;;;;9.68;7.90;;;12.00;99.90;;;;;;5033108;28;20419;-74
2022/11/13 11:54:24;;;;;;;16.00;8.02;;;12.20;99.90;;;;;;5045400;28;20036;-77
2022/11/13 11:56:54;;;;;;;11.15;8.88;;;12.30;99.90;;;;;;5029633;28;20057;-75
2022/11/13 11:59:38;;;;;;;11.43;9.15;;;12.30;99.90;;;;;;5048949;28;20076;-77
2022/11/13 12:02:41;;;;;;;9.30;7.82;;;12.40;99.90;;;;;;5046277;28;20053;-77
2022/11/13 12:05:12;;;;;;;9.65;7.00;;;12.50;99.90;;;;;;5047683;28;20124;-77
2022/11/13 12:07:51;;;;;;;8.60;6.63;;;12.70;99.90;;;;;;5043037;28;20410;-76
2022/11/13 12:10:41;;;;;;;6.35;4.90;;;12.70;99.90;;;;;;5039303;28;20048;-77
2022/11/13 12:13:22;;;;;;;;;;;12.90;99.90;;;;;;5043975;28;20072;-77
2022/11/13 12:16:00;;;;;;;6.45;5.22;;;13.00;99.90;;;;;;5048257;28;19924;-77
2022/11/13 12:18:44;;;;;;;7.97;6.75;;;12.80;99.90;;;;;;5033287;28;20172;-76
2022/11/13 12:21:29;;;;;;;7.93;6.30;;;12.80;99.90;;;;;;5036243;28;20092;-76
2022/11/13 12:24:01;;;;;;;10.52;7.38;;;12.70;99.90;;;;;;5044416;28;20890;-77
2022/11/13 12:26:36;;;;;;;8.63;7.15;;;12.70;99.90;;;;;;5048174;28;20041;-76
2022/11/13 12:29:04;;;;;;;10.40;7.35;;;12.70;99.90;;;;;;5040137;28;20055;-76
2022/11/13 12:31:39;;;;;;;9.82;7.15;;;12.80;99.90;;;;;;5027432;28;20451;-75
2022/11/13 12:34:26;;;;;;;10.00;8.65;;;12.80;99.90;;;;;;5037804;28;20046;-75
2022/11/13 12:36:53;;;;;;;8.88;7.97;;;12.80;99.90;;;;;;5041216;28;20076;-77
2022/11/13 12:39:48;;;;;;;10.95;7.32;;;13.00;99.90;;;;;;5043105;28;20045;-78
2022/11/13 12:42:20;;;;;;;8.15;7.35;;;13.00;99.90;;;;;;5045263;28;20071;-77
2022/11/13 12:45:04;;;;;;;8.02;7.22;;;13.00;99.90;;;;;;5045696;28;20045;-76
2022/11/13 12:47:32;;;;;;;7.63;6.82;;;13.10;99.90;;;;;;5043215;28;20053;-74
2022/11/13 12:50:06;;;;;;;9.30;6.43;;;13.00;99.90;;;;;;5036368;28;20041;-75
2022/11/13 12:52:31;;;;;;;8.27;6.43;;;12.90;99.90;;;;;;5047374;28;20049;-75